Time;durP1;ratioP1;P1;durP2;ratioP2;P2;SDS_P1;SDS_P2;PMS_P1;PMS_P2;Temp;Humidity;BMP_temperature;BMP_pressure;BME280_temperature;BME280_humidity;BME280_pressure;Samples;Min_cycle;Max_cycle;Signal;HPM_P1;HPM_P2
2023/06/12 00:00:20;;;;;;;5.28;3.88;;;;;;;18.95;65.07;98366.06;4125818;28;20284;-49
2023/06/12 00:02:22;;;;;;;3.75;3.42;;;;;;;18.95;65.16;98370.78;4110359;28;20213;-47
2023/06/12 00:04:23;;;;;;;4.82;4.43;;;;;;;18.93;65.11;98361.94;4113841;28;20242;-48
2023/06/12 00:06:28;;;;;;;3.90;3.60;;;;;;;18.90;65.16;98362.56;4105227;28;20218;-49
2023/06/12 00:08:33;;;;;;;4.60;4.20;;;;;;;18.89;65.35;98366.47;4112583;28;20207;-48
2023/06/12 00:10:35;;;;;;;4.40;4.10;;;;;;;18.87;65.30;98363.19;4113329;28;20291;-48
2023/06/12 00:12:37;;;;;;;4.22;3.92;;;;;;;18.89;65.18;98377.53;4109217;28;20218;-49
2023/06/12 00:14:39;;;;;;;4.43;4.13;;;;;;;18.88;65.47;98370.38;4110993;28;20227;-49
2023/06/12 00:16:40;;;;;;;3.85;3.55;;;;;;;18.90;65.58;98368.94;4109410;28;20719;-50
2023/06/12 00:18:42;;;;;;;4.35;3.95;;;;;;;18.87;65.92;98363.19;4109354;28;20747;-50
2023/06/12 00:20:44;;;;;;;4.10;3.80;;;;;;;18.79;66.05;98369.44;4109650;28;20233;-47
2023/06/12 00:22:46;;;;;;;7.03;4.30;;;;;;;18.77;66.20;98363.38;4123630;28;20276;-47
2023/06/12 00:24:48;;;;;;;10.23;5.40;;;;;;;18.65;66.37;98371.38;4109735;28;20227;-50
2023/06/12 00:26:49;;;;;;;5.05;3.72;;;;;;;18.56;66.65;98374.03;4109112;28;20261;-48
2023/06/12 00:28:51;;;;;;;6.68;4.32;;;;;;;18.53;67.08;98368.25;4094667;28;20216;-49
2023/06/12 00:30:53;;;;;;;4.30;4.00;;;;;;;18.51;67.22;98373.31;4110330;28;20298;-47
2023/06/12 00:32:54;;;;;;;3.90;3.60;;;;;;;18.42;67.63;98372.34;4104841;28;20271;-48
2023/06/12 00:34:56;;;;;;;4.22;3.92;;;;;;;18.47;67.47;98369.47;4090802;28;20618;-49
2023/06/12 00:36:58;;;;;;;4.13;3.83;;;;;;;18.48;66.92;98371.13;4110546;28;20210;-49
2023/06/12 00:39:00;;;;;;;4.05;3.70;;;;;;;18.43;66.55;98362.88;4110452;28;20203;-51
2023/06/12 00:41:01;;;;;;;4.00;3.70;;;;;;;18.40;66.54;98371.81;4109916;28;20219;-49
2023/06/12 00:43:05;;;;;;;4.55;4.15;;;;;;;18.39;66.72;98368.22;4086834;29;20228;-49
2023/06/12 00:45:07;;;;;;;4.28;3.97;;;;;;;18.30;66.72;98370.06;4109510;28;20254;-48
2023/06/12 00:47:10;;;;;;;4.30;4.00;;;;;;;18.28;67.06;98371.44;4110170;28;20218;-49
2023/06/12 00:49:12;;;;;;;4.10;3.80;;;;;;;18.33;67.16;98376.94;4108787;28;20276;-48
2023/06/12 00:51:17;;;;;;;4.05;3.75;;;;;;;18.35;67.15;98383.00;4094333;28;20234;-48
2023/06/12 00:53:19;;;;;;;4.13;3.70;;;;;;;18.28;67.04;98376.97;4107781;28;20222;-50
2023/06/12 00:55:21;;;;;;;4.05;3.75;;;;;;;18.24;67.28;98381.50;4106903;28;20218;-49
2023/06/12 00:57:23;;;;;;;4.75;3.70;;;;;;;18.21;67.84;98373.78;4110789;28;20277;-51
2023/06/12 00:59:24;;;;;;;4.18;3.78;;;;;;;18.15;68.27;98372.22;4103607;28;20280;-47
2023/06/12 01:01:26;;;;;;;3.75;3.45;;;;;;;18.04;68.27;98376.28;4107921;28;20281;-47
2023/06/12 01:03:29;;;;;;;5.22;3.95;;;;;;;18.03;68.91;98374.63;4105137;28;20202;-48
2023/06/12 01:05:35;;;;;;;4.53;3.92;;;;;;;18.01;68.81;98377.72;4109484;28;20211;-50
2023/06/12 01:07:47;;;;;;;4.57;4.18;;;;;;;17.90;68.65;98375.38;4125969;28;20305;-47
2023/06/12 01:09:55;;;;;;;6.18;5.30;;;;;;;17.87;68.68;98376.00;4108433;28;20952;-48
2023/06/12 01:11:57;;;;;;;6.35;4.90;;;;;;;17.87;68.59;98376.00;4109197;28;20248;-51
2023/06/12 01:13:59;;;;;;;5.18;4.78;;;;;;;17.81;68.83;98374.44;4126041;28;20319;-50
2023/06/12 01:16:01;;;;;;;5.03;4.72;;;;;;;17.77;69.28;98376.13;4094366;28;20211;-47
2023/06/12 01:18:06;;;;;;;4.70;4.32;;;;;;;17.76;69.04;98385.56;4111077;28;20218;-49
2023/06/12 01:20:13;;;;;;;3.53;3.33;;;;;;;17.80;69.04;98381.09;4112200;28;20214;-47
2023/06/12 01:22:17;;;;;;;4.13;3.83;;;;;;;17.76;69.42;98383.63;4096369;28;20591;-47
2023/06/12 01:24:34;;;;;;;5.18;4.07;;;;;;;17.73;69.68;98377.88;4095379;28;20689;-48
2023/06/12 01:26:48;;;;;;;4.72;4.32;;;;;;;17.65;69.97;98378.56;4103469;28;20218;-51
2023/06/12 01:28:53;;;;;;;4.25;3.95;;;;;;;17.61;70.44;98371.97;4109952;28;20209;-47
2023/06/12 01:31:13;;;;;;;5.15;4.72;;;;;;;17.54;71.36;98388.13;4112933;28;20205;-48
2023/06/12 01:33:21;;;;;;;4.13;3.78;;;;;;;17.51;71.76;98377.66;4108202;28;20677;-47
2023/06/12 01:35:24;;;;;;;6.10;4.45;;;;;;;17.44;72.29;98377.19;4109751;28;20691;-49
2023/06/12 01:37:42;;;;;;;4.20;3.90;;;;;;;17.43;72.44;98375.53;4123763;28;20297;-47
2023/06/12 01:39:55;;;;;;;5.88;4.68;;;;;;;17.38;73.18;98376.41;4110521;28;20712;-47
2023/06/12 01:41:57;;;;;;;4.32;4.03;;;;;;;17.38;73.10;98375.63;4108530;28;20301;-49
2023/06/12 01:44:11;;;;;;;5.00;4.60;;;;;;;17.30;73.50;98381.75;4109472;28;20649;-47
2023/06/12 01:46:13;;;;;;;4.65;4.35;;;;;;;17.28;73.73;98384.00;4109599;28;20315;-48
2023/06/12 01:48:16;;;;;;;4.13;3.83;;;;;;;17.34;73.57;98377.28;4103251;28;20683;-47
2023/06/12 01:50:18;;;;;;;23.48;4.28;;;;;;;17.32;73.18;98374.81;4105269;28;20593;-47
2023/06/12 01:52:20;;;;;;;5.53;5.13;;;;;;;17.30;72.73;98377.06;4102082;28;20219;-48
2023/06/12 01:54:22;;;;;;;9.15;5.90;;;;;;;17.25;72.58;98376.31;4102483;28;20705;-48
2023/06/12 01:56:25;;;;;;;5.30;4.90;;;;;;;17.19;72.19;98380.25;4106917;28;20215;-47
2023/06/12 01:58:27;;;;;;;5.45;5.05;;;;;;;17.15;72.14;98379.19;4104683;28;20207;-48
2023/06/12 02:00:29;;;;;;;6.22;5.75;;;;;;;17.13;72.04;98373.13;4101995;28;20215;-47
2023/06/12 02:02:32;;;;;;;5.70;5.30;;;;;;;17.13;72.03;98373.13;4104401;28;20219;-47
2023/06/12 02:04:34;;;;;;;5.75;5.32;;;;;;;17.07;72.09;98374.31;4108969;28;20640;-50
2023/06/12 02:06:36;;;;;;;4.65;4.35;;;;;;;17.02;72.15;98375.22;4103446;28;20211;-47
2023/06/12 02:08:38;;;;;;;5.72;5.25;;;;;;;16.97;72.15;98371.66;4110696;28;20667;-48
2023/06/12 02:10:40;;;;;;;5.40;5.00;;;;;;;16.96;72.28;98370.00;4115625;28;20257;-48
2023/06/12 02:12:43;;;;;;;6.50;4.85;;;;;;;16.93;72.50;98376.97;4111312;28;20724;-47
2023/06/12 02:14:45;;;;;;;5.28;4.88;;;;;;;16.89;72.71;98375.09;4110310;28;20229;-47
2023/06/12 02:16:47;;;;;;;5.78;5.07;;;;;;;16.89;72.66;98366.78;4113080;28;20211;-48
2023/06/12 02:18:49;;;;;;;5.90;4.95;;;;;;;16.87;72.97;98366.25;4113715;28;20202;-47
2023/06/12 02:20:51;;;;;;;6.35;5.90;;;;;;;16.84;73.03;98366.84;4096251;28;20289;-48
2023/06/12 02:22:53;;;;;;;5.50;5.10;;;;;;;16.83;73.29;98370.72;4113157;28;20210;-51
2023/06/12 02:24:56;;;;;;;5.75;5.15;;;;;;;16.85;73.28;98379.56;4114940;28;20776;-51
2023/06/12 02:26:58;;;;;;;5.30;4.85;;;;;;;16.85;73.22;98390.63;4100472;28;20210;-48
2023/06/12 02:29:12;;;;;;;5.43;4.93;;;;;;;16.91;73.28;98389.44;4098462;28;20239;-47
2023/06/12 02:31:13;;;;;;;5.82;5.32;;;;;;;16.90;73.25;98382.25;4115557;28;20261;-48
2023/06/12 02:33:18;;;;;;;5.18;4.78;;;;;;;16.85;73.00;98384.25;4112524;28;20223;-47
2023/06/12 02:35:20;;;;;;;5.00;4.70;;;;;;;16.81;73.24;98394.25;4126475;28;20269;-47
2023/06/12 02:37:22;;;;;;;5.65;5.10;;;;;;;16.68;73.46;98389.44;4111254;28;20215;-49
2023/06/12 02:39:24;;;;;;;5.95;5.03;;;;;;;16.70;73.55;98388.00;4116970;28;20222;-47
2023/06/12 02:41:26;;;;;;;5.45;5.05;;;;;;;16.70;73.88;98393.53;4097691;28;20259;-49
2023/06/12 02:43:28;;;;;;;5.57;5.15;;;;;;;16.65;74.30;98393.59;4097722;28;20694;-47
2023/06/12 02:45:29;;;;;;;4.55;4.25;;;;;;;16.61;74.46;98389.75;4114486;28;20230;-47
2023/06/12 02:47:31;;;;;;;5.70;5.30;;;;;;;16.61;74.80;98394.44;4124817;28;20253;-47
2023/06/12 02:49:33;;;;;;;5.18;4.78;;;;;;;16.61;75.08;98400.81;4112572;28;20238;-47
2023/06/12 02:51:35;;;;;;;5.78;5.38;;;;;;;16.56;75.39;98403.63;4112603;28;20600;-47
2023/06/12 02:53:36;;;;;;;5.32;4.93;;;;;;;16.48;75.97;98404.25;4111142;28;20660;-49
2023/06/12 02:55:39;;;;;;;6.03;5.57;;;;;;;16.38;76.36;98401.59;4107795;28;20681;-47
2023/06/12 02:57:41;;;;;;;5.80;5.20;;;;;;;16.37;76.49;98397.13;4111098;28;20215;-47
2023/06/12 02:59:43;;;;;;;6.90;5.63;;;;;;;16.35;76.75;98396.59;4106097;28;20211;-49
2023/06/12 03:01:45;;;;;;;5.72;5.32;;;;;;;16.30;76.71;98398.59;4127287;28;20289;-47
2023/06/12 03:03:48;;;;;;;8.98;4.85;;;;;;;16.32;76.79;98397.22;4112070;28;20250;-47
2023/06/12 03:05:50;;;;;;;5.72;5.32;;;;;;;16.31;76.57;98405.78;4111371;28;20225;-47
2023/06/12 03:07:52;;;;;;;5.90;5.50;;;;;;;16.31;76.48;98405.78;4111686;28;20238;-47
2023/06/12 03:09:54;;;;;;;5.38;4.97;;;;;;;16.32;76.56;98408.25;4112133;28;20214;-47
2023/06/12 03:11:55;;;;;;;6.80;6.20;;;;;;;16.26;76.74;98416.84;4111709;28;20254;-48
2023/06/12 03:13:57;;;;;;;6.82;6.32;;;;;;;16.27;76.62;98424.03;4110636;28;20759;-49
2023/06/12 03:16:00;;;;;;;6.13;5.72;;;;;;;16.19;76.73;98410.84;4113581;28;20556;-47
2023/06/12 03:18:01;;;;;;;5.32;4.93;;;;;;;16.16;76.51;98415.00;4111244;28;20669;-49
2023/06/12 03:20:06;;;;;;;6.32;5.82;;;;;;;16.14;76.50;98422.75;4093656;28;20654;-47
2023/06/12 03:22:08;;;;;;;6.45;5.95;;;;;;;16.06;77.32;98428.06;4112285;28;20230;-48
2023/06/12 03:24:10;;;;;;;6.80;6.30;;;;;;;16.13;76.87;98425.78;4111852;28;20231;-47
2023/06/12 03:26:12;;;;;;;7.05;5.60;;;;;;;16.19;76.43;98436.53;4111052;28;20713;-49
2023/06/12 03:28:14;;;;;;;6.25;5.75;;;;;;;16.24;76.15;98428.19;4113134;28;20298;-50
2023/06/12 03:30:16;;;;;;;5.82;5.43;;;;;;;16.24;76.39;98433.69;4112175;28;20214;-47
2023/06/12 03:32:17;;;;;;;6.05;5.65;;;;;;;16.21;76.63;98438.97;4109632;28;20214;-49
2023/06/12 03:34:19;;;;;;;6.30;5.80;;;;;;;16.14;76.73;98427.44;4110023;28;20301;-47
2023/06/12 03:36:23;;;;;;;6.25;5.75;;;;;;;16.04;76.81;98436.63;4112074;28;20427;-50
2023/06/12 03:38:25;;;;;;;6.43;5.93;;;;;;;16.04;76.86;98444.09;4108068;28;20297;-48
2023/06/12 03:40:27;;;;;;;7.60;7.03;;;;;;;15.95;77.22;98451.34;4102018;28;20219;-47
2023/06/12 03:42:29;;;;;;;7.30;6.80;;;;;;;15.93;77.41;98442.50;4112481;28;20231;-52
2023/06/12 03:44:31;;;;;;;6.38;5.88;;;;;;;15.91;77.72;98442.78;4111089;28;20807;-52
2023/06/12 03:46:32;;;;;;;5.78;5.28;;;;;;;15.90;77.93;98435.59;4112148;28;20215;-52
2023/06/12 03:48:35;;;;;;;5.63;5.22;;;;;;;15.92;77.96;98441.69;4126835;28;20210;-52
2023/06/12 03:50:36;;;;;;;5.13;4.72;;;;;;;15.93;78.08;98448.03;4111758;28;20313;-50
2023/06/12 03:52:39;;;;;;;6.10;5.70;;;;;;;15.89;78.12;98442.25;4110088;28;20250;-50
2023/06/12 03:54:40;;;;;;;6.15;5.65;;;;;;;15.89;78.21;98442.25;4106954;28;20313;-51
2023/06/12 03:56:42;;;;;;;5.45;5.03;;;;;;;15.88;78.18;98440.59;4106955;28;20269;-51
2023/06/12 03:58:44;;;;;;;5.13;4.72;;;;;;;15.91;78.48;98440.00;4112292;28;20218;-50
2023/06/12 04:00:47;;;;;;;5.03;4.63;;;;;;;15.88;78.31;98437.00;4105861;28;20309;-50
2023/06/12 04:02:49;;;;;;;6.07;5.57;;;;;;;15.92;78.59;98446.38;4105577;28;20257;-51
2023/06/12 04:04:53;;;;;;;8.95;5.57;;;;;;;15.88;78.58;98448.88;4110579;28;20313;-51
2023/06/12 04:06:56;;;;;;;6.55;4.78;;;;;;;15.89;78.59;98447.75;4111996;28;20673;-49
2023/06/12 04:08:59;;;;;;;5.53;5.05;;;;;;;15.87;78.93;98449.16;4124695;28;20210;-50
2023/06/12 04:11:02;;;;;;;6.22;5.80;;;;;;;15.88;79.10;98446.13;4114347;28;20257;-51
2023/06/12 04:13:04;;;;;;;5.60;5.18;;;;;;;15.90;79.16;98452.16;4127032;28;20206;-51
2023/06/12 04:15:07;;;;;;;6.70;6.13;;;;;;;15.92;79.72;98458.25;4110248;28;20237;-50
2023/06/12 04:17:08;;;;;;;6.03;5.45;;;;;;;15.88;79.88;98462.69;4109218;28;20218;-50
2023/06/12 04:19:12;;;;;;;5.82;5.30;;;;;;;15.86;80.12;98459.38;4103508;28;20210;-49
2023/06/12 04:21:16;;;;;;;5.10;4.70;;;;;;;15.88;80.02;98462.69;4095477;28;20567;-51
2023/06/12 04:23:18;;;;;;;6.30;5.80;;;;;;;15.89;79.96;98469.84;4110616;28;20210;-51
2023/06/12 04:25:19;;;;;;;6.03;5.45;;;;;;;15.88;79.57;98465.44;4111012;28;20221;-51
2023/06/12 04:27:21;;;;;;;5.78;5.10;;;;;;;15.94;79.74;98467.06;4112541;28;20286;-50
2023/06/12 04:29:24;;;;;;;5.88;5.28;;;;;;;15.96;79.82;98466.78;4096027;28;20693;-49
2023/06/12 04:31:30;;;;;;;6.03;5.60;;;;;;;15.96;79.73;98470.34;4111671;28;20269;-50
2023/06/12 04:33:32;;;;;;;5.75;4.95;;;;;;;16.00;79.69;98465.91;4108779;28;20246;-49
2023/06/12 04:35:34;;;;;;;6.00;5.53;;;;;;;15.99;79.79;98474.47;4123905;28;20210;-50
2023/06/12 04:37:37;;;;;;;6.50;6.00;;;;;;;16.05;79.57;98468.66;4125791;28;20210;-51
2023/06/12 04:39:38;;;;;;;5.25;4.75;;;;;;;16.09;79.12;98471.66;4126421;28;20216;-49
2023/06/12 04:41:40;;;;;;;6.68;6.07;;;;;;;16.16;78.52;98467.44;4108681;28;20281;-50
2023/06/12 04:43:43;;;;;;;7.47;5.07;;;;;;;16.18;78.65;98472.69;4109978;28;20612;-49
2023/06/12 04:45:46;;;;;;;5.35;4.85;;;;;;;16.25;78.22;98467.69;4111901;28;20226;-51
2023/06/12 04:47:49;;;;;;;5.55;5.05;;;;;;;16.23;78.27;98469.91;4109522;28;20724;-51
2023/06/12 04:49:57;;;;;;;6.38;5.82;;;;;;;16.30;77.79;98478.69;4109127;28;20221;-49
2023/06/12 04:52:03;;;;;;;5.72;5.28;;;;;;;16.31;77.62;98472.88;4111405;28;20202;-50
2023/06/12 04:54:05;;;;;;;5.20;4.70;;;;;;;16.34;77.91;98472.31;4106222;28;20231;-52
2023/06/12 04:56:08;;;;;;;5.35;4.97;;;;;;;16.11;77.63;98467.50;4096653;28;20211;-50
2023/06/12 04:58:10;;;;;;;6.50;4.40;;;;;;;16.32;77.66;98466.25;4110651;28;20203;-49
2023/06/12 05:00:15;;;;;;;5.63;5.13;;;;;;;16.21;78.24;98467.44;4105606;28;20737;-50
2023/06/12 05:02:17;;;;;;;5.90;5.25;;;;;;;16.23;78.44;98467.94;4111306;28;20310;-50
2023/06/12 05:04:19;;;;;;;5.93;5.43;;;;;;;16.34;78.02;98463.19;4109943;28;20928;-51
2023/06/12 05:06:21;;;;;;;6.03;5.22;;;;;;;16.47;77.28;98466.16;4092875;28;20210;-49
2023/06/12 05:08:23;;;;;;;4.65;4.03;;;;;;;16.44;77.82;98466.72;4097023;28;20258;-50
2023/06/12 05:10:25;;;;;;;6.18;4.95;;;;;;;16.54;77.53;98455.59;4112067;28;20227;-50
2023/06/12 05:12:27;;;;;;;5.68;5.15;;;;;;;16.54;77.66;98466.63;4111049;28;20262;-50
2023/06/12 05:14:29;;;;;;;5.22;4.82;;;;;;;16.62;77.92;98471.53;4111561;28;20245;-50
2023/06/12 05:16:32;;;;;;;4.85;4.45;;;;;;;16.62;77.54;98466.00;4109458;28;20207;-49
2023/06/12 05:18:34;;;;;;;6.15;5.65;;;;;;;16.67;77.78;98471.50;4110501;28;20290;-50
2023/06/12 05:20:36;;;;;;;5.15;4.75;;;;;;;16.75;77.88;98467.28;4110148;28;20206;-51
2023/06/12 05:22:38;;;;;;;4.28;3.97;;;;;;;16.94;76.84;98471.78;4109795;28;20281;-50
2023/06/12 05:24:40;;;;;;;5.40;5.03;;;;;;;16.82;78.26;98467.78;4108485;28;20572;-50
2023/06/12 05:26:41;;;;;;;5.43;4.72;;;;;;;17.02;76.81;98462.84;4125175;28;20808;-51
2023/06/12 05:28:43;;;;;;;5.50;4.90;;;;;;;17.17;76.16;98465.44;4110404;28;20202;-50
2023/06/12 05:30:47;;;;;;;4.28;3.95;;;;;;;17.40;74.54;98467.44;4109800;28;20210;-50
2023/06/12 05:32:49;;;;;;;5.00;4.60;;;;;;;17.56;74.47;98466.13;4109489;28;20293;-49
2023/06/12 05:34:51;;;;;;;4.70;4.30;;;;;;;17.63;75.13;98464.66;4109299;28;20313;-50
2023/06/12 05:36:54;;;;;;;4.80;4.28;;;;;;;17.84;74.24;98470.75;4109920;28;20210;-50
2023/06/12 05:38:56;;;;;;;8.38;4.75;;;;;;;18.03;75.24;98468.78;4107434;28;20550;-50
2023/06/12 05:40:58;;;;;;;4.78;4.38;;;;;;;18.19;74.83;98473.00;4107123;28;20751;-50
2023/06/12 05:43:00;;;;;;;5.10;4.68;;;;;;;18.37;74.99;98474.94;4103746;28;20260;-50
2023/06/12 05:45:03;;;;;;;4.63;4.22;;;;;;;18.61;73.61;98472.91;4123199;28;20232;-50
2023/06/12 05:47:05;;;;;;;4.95;4.47;;;;;;;18.84;73.35;98474.72;4109922;28;20206;-51
2023/06/12 05:49:11;;;;;;;4.93;4.55;;;;;;;19.04;71.84;98479.91;4109547;28;20325;-51
2023/06/12 05:51:13;;;;;;;3.78;3.47;;;;;;;19.22;70.65;98481.78;4111983;28;20207;-52
2023/06/12 05:53:14;;;;;;;4.80;4.40;;;;;;;19.44;69.38;98474.41;4096644;28;20199;-49
2023/06/12 05:55:17;;;;;;;5.55;4.38;;;;;;;19.66;68.71;98476.47;4111449;28;20222;-49
2023/06/12 05:57:18;;;;;;;7.50;4.15;;;;;;;19.84;68.54;98478.31;4109960;28;20206;-50
2023/06/12 05:59:20;;;;;;;4.97;4.57;;;;;;;19.95;67.68;98480.56;4111527;28;20268;-50
2023/06/12 06:01:24;;;;;;;5.47;3.75;;;;;;;20.15;67.11;98474.56;4115521;28;20214;-51
2023/06/12 06:03:26;;;;;;;4.22;3.88;;;;;;;20.35;65.55;98478.84;4112886;28;20794;-51
2023/06/12 06:05:30;;;;;;;28.75;5.03;;;;;;;20.35;65.57;98485.22;4111676;28;20638;-50
2023/06/12 06:07:33;;;;;;;5.75;5.25;;;;;;;20.33;67.08;98486.66;4112783;28;20220;-51
2023/06/12 06:09:34;;;;;;;5.88;4.80;;;;;;;20.54;66.03;98479.47;4111474;28;20249;-49
2023/06/12 06:11:36;;;;;;;4.97;4.47;;;;;;;20.68;65.62;98480.25;4109999;28;20210;-50
2023/06/12 06:13:39;;;;;;;4.72;4.25;;;;;;;20.90;65.03;98485.84;4114329;28;20210;-49
2023/06/12 06:15:40;;;;;;;4.90;4.47;;;;;;;21.04;64.06;98487.41;4111762;28;20289;-47
2023/06/12 06:17:42;;;;;;;4.40;4.10;;;;;;;21.15;63.47;98483.22;4112279;28;20206;-50
2023/06/12 06:19:44;;;;;;;6.15;5.00;;;;;;;21.09;64.86;98492.00;4110435;28;20215;-47
2023/06/12 06:21:46;;;;;;;4.82;4.38;;;;;;;21.35;63.75;98484.63;4117159;28;20202;-47
2023/06/12 06:23:48;;;;;;;4.82;4.32;;;;;;;21.39;63.72;98488.41;4111279;28;20226;-49
2023/06/12 06:25:50;;;;;;;6.25;3.65;;;;;;;21.59;63.38;98487.84;4112066;28;20201;-47
2023/06/12 06:27:52;;;;;;;8.07;4.65;;;;;;;21.74;63.16;98484.66;4113442;28;20237;-47
2023/06/12 06:29:53;;;;;;;5.88;4.10;;;;;;;21.88;63.09;98486.19;4127954;28;20245;-48
2023/06/12 06:31:55;;;;;;;7.30;4.13;;;;;;;22.06;62.80;98482.28;4108857;28;20253;-48
2023/06/12 06:33:57;;;;;;;5.38;4.90;;;;;;;21.96;62.68;98490.09;4111525;28;20710;-49
2023/06/12 06:35:59;;;;;;;4.55;4.15;;;;;;;22.07;62.52;98492.28;4112583;28;20648;-48
2023/06/12 06:38:00;;;;;;;5.10;4.70;;;;;;;21.75;58.75;98491.84;4126659;28;20210;-47
2023/06/12 06:40:04;;;;;;;4.78;4.38;;;;;;;21.65;60.17;98492.94;4110685;28;20213;-47
2023/06/12 06:42:06;;;;;;;7.70;4.03;;;;;;;21.41;60.18;98491.69;4097163;28;20764;-49
2023/06/12 06:44:08;;;;;;;7.25;4.22;;;;;;;21.61;59.65;98491.94;4124184;28;20264;-49
2023/06/12 06:46:10;;;;;;;4.90;4.53;;;;;;;21.54;59.03;98494.38;4125877;28;20263;-50
2023/06/12 06:48:12;;;;;;;4.60;4.20;;;;;;;21.53;59.51;98492.75;4109833;28;20217;-49
2023/06/12 06:50:14;;;;;;;6.53;4.47;;;;;;;21.76;58.59;98494.31;4104056;28;20245;-52
2023/06/12 06:52:18;;;;;;;5.00;4.68;;;;;;;22.23;59.40;98489.88;4112680;28;20213;-49
2023/06/12 06:54:20;;;;;;;4.55;4.15;;;;;;;22.55;58.76;98492.19;4125484;28;20270;-49
2023/06/12 06:56:21;;;;;;;4.45;4.05;;;;;;;22.52;58.02;98495.66;4111770;28;20206;-51
2023/06/12 06:58:23;;;;;;;4.15;3.85;;;;;;;22.91;56.46;98492.69;4111075;28;20210;-47
2023/06/12 07:00:26;;;;;;;5.32;4.93;;;;;;;22.47;56.49;98487.44;4103721;28;20214;-48
2023/06/12 07:02:27;;;;;;;4.97;4.28;;;;;;;22.67;57.27;98492.34;4110991;28;20249;-47
2023/06/12 07:04:29;;;;;;;4.95;4.45;;;;;;;22.82;55.61;98489.06;4109658;28;20614;-49
2023/06/12 07:06:31;;;;;;;5.47;4.18;;;;;;;23.00;54.73;98482.31;4111580;28;20257;-49
2023/06/12 07:08:33;;;;;;;4.25;3.95;;;;;;;23.31;55.67;98480.13;4111313;28;20210;-47
2023/06/12 07:10:34;;;;;;;4.07;3.67;;;;;;;23.48;55.18;98482.84;4092511;28;20234;-47
2023/06/12 07:12:36;;;;;;;4.20;3.83;;;;;;;23.25;53.88;98478.69;4124922;28;20594;-47
2023/06/12 07:14:38;;;;;;;6.38;4.95;;;;;;;23.43;53.53;98475.47;4096060;28;20231;-47
2023/06/12 07:16:40;;;;;;;6.38;4.07;;;;;;;23.19;53.90;98477.22;4111615;28;20622;-48
2023/06/12 07:18:42;;;;;;;5.95;3.90;;;;;;;23.50;54.30;98478.56;4111796;28;20545;-48
2023/06/12 07:20:43;;;;;;;4.45;3.97;;;;;;;23.64;54.17;98478.38;4109337;28;20257;-50
2023/06/12 07:22:45;;;;;;;5.10;4.70;;;;;;;23.17;52.74;98491.50;4110894;28;20245;-49
2023/06/12 07:24:54;;;;;;;4.03;3.72;;;;;;;23.26;53.64;98471.94;4096448;28;20233;-47
2023/06/12 07:26:56;;;;;;;4.88;4.57;;;;;;;23.47;53.83;98472.84;4108280;28;20605;-50
2023/06/12 07:28:58;;;;;;;7.53;5.40;;;;;;;23.67;52.49;98468.13;4079476;29;20302;-49
2023/06/12 07:31:01;;;;;;;4.47;4.07;;;;;;;23.76;52.55;98476.50;4124738;28;20347;-49
2023/06/12 07:33:03;;;;;;;4.28;3.88;;;;;;;23.61;52.60;98467.84;4110468;28;20195;-49
2023/06/12 07:35:05;;;;;;;4.57;4.18;;;;;;;23.50;54.41;98480.56;4110887;28;20310;-51
2023/06/12 07:37:07;;;;;;;5.47;4.68;;;;;;;23.46;53.16;98474.00;4110784;28;20624;-50
2023/06/12 07:39:09;;;;;;;5.50;4.90;;;;;;;23.52;54.28;98475.47;4107028;28;20210;-50
2023/06/12 07:41:11;;;;;;;4.07;3.78;;;;;;;23.55;52.12;98463.59;4110798;28;20264;-51
2023/06/12 07:43:13;;;;;;;5.72;4.38;;;;;;;23.43;52.61;98471.88;4096881;28;20237;-49
2023/06/12 07:45:14;;;;;;;4.40;4.03;;;;;;;23.43;52.37;98471.88;4109243;28;20234;-52
2023/06/12 07:47:17;;;;;;;4.13;3.83;;;;;;;24.09;52.78;98463.50;4110429;28;20362;-50
2023/06/12 07:49:19;;;;;;;5.07;3.65;;;;;;;24.13;50.87;98476.47;4111678;28;20206;-52
2023/06/12 07:51:21;;;;;;;4.70;4.30;;;;;;;24.31;51.73;98474.34;4093054;28;20753;-54
2023/06/12 07:53:23;;;;;;;4.40;4.10;;;;;;;24.52;52.07;98476.00;4109713;28;20520;-50
2023/06/12 07:55:38;;;;;;;4.43;4.03;;;;;;;24.31;51.88;98478.00;4112290;28;20791;-50
2023/06/12 07:57:40;;;;;;;4.35;4.05;;;;;;;24.45;51.14;98472.94;4113463;28;20206;-50
2023/06/12 07:59:44;;;;;;;4.55;4.15;;;;;;;24.65;50.50;98466.56;4126292;28;20240;-50
2023/06/12 08:01:46;;;;;;;3.78;3.45;;;;;;;24.42;50.01;98465.25;4123308;28;20206;-51
2023/06/12 08:03:48;;;;;;;4.53;4.13;;;;;;;24.78;50.41;98471.03;4109792;28;20233;-50
2023/06/12 08:05:49;;;;;;;4.28;3.80;;;;;;;24.87;50.27;98463.38;4124394;28;20205;-48
2023/06/12 08:07:52;;;;;;;6.38;3.83;;;;;;;24.89;49.67;98477.03;4096739;28;20277;-49
2023/06/12 08:09:53;;;;;;;4.72;4.18;;;;;;;24.95;50.04;98473.69;4106143;28;20269;-49
2023/06/12 08:11:55;;;;;;;4.22;3.80;;;;;;;24.95;50.01;98470.91;4107883;28;20664;-47
2023/06/12 08:13:57;;;;;;;9.63;8.75;;;;;;;25.08;49.70;98463.34;4109016;28;20217;-49
2023/06/12 08:15:59;;;;;;;6.45;5.30;;;;;;;25.43;49.26;98465.44;4110771;28;20252;-48
2023/06/12 08:18:00;;;;;;;4.80;4.40;;;;;;;25.53;50.31;98470.59;4121959;28;20244;-49
2023/06/12 08:20:10;;;;;;;8.02;4.75;;;;;;;25.79;49.31;98462.66;4106929;28;20611;-50
2023/06/12 08:22:12;;;;;;;7.90;5.78;;;;;;;25.88;49.16;98459.75;4107173;28;20691;-49
2023/06/12 08:24:14;;;;;;;5.05;4.55;;;;;;;25.97;48.44;98458.50;4093656;28;20238;-47
2023/06/12 08:26:16;;;;;;;4.70;3.95;;;;;;;25.49;48.04;98464.06;4110086;28;20594;-48
2023/06/12 08:28:18;;;;;;;4.47;4.18;;;;;;;26.21;46.98;98457.66;4108120;28;20210;-50
2023/06/12 08:30:19;;;;;;;4.95;4.10;;;;;;;26.03;47.82;98459.91;4108228;28;20210;-49
2023/06/12 08:32:22;;;;;;;5.72;3.58;;;;;;;26.17;46.97;98451.94;4110009;28;20720;-48
2023/06/12 08:34:30;;;;;;;4.60;4.30;;;;;;;26.44;47.56;98451.16;4194743;27;20965;-52
2023/06/12 08:36:35;;;;;;;4.60;4.22;;;;;;;26.61;47.73;98458.53;4167786;28;20212;-51
2023/06/12 08:38:36;;;;;;;4.38;3.97;;;;;;;26.59;47.20;98453.25;4150905;28;20306;-51
2023/06/12 08:40:38;;;;;;;4.68;4.38;;;;;;;27.00;47.34;98455.66;4156995;28;20212;-51
2023/06/12 08:42:44;;;;;;;4.53;4.05;;;;;;;27.50;46.72;98455.88;4156619;28;20208;-51
2023/06/12 08:44:46;;;;;;;4.38;4.07;;;;;;;27.47;46.25;98450.97;4150134;28;20275;-52
2023/06/12 08:46:51;;;;;;;4.88;4.57;;;;;;;26.76;45.64;98455.78;4168687;28;20207;-50
2023/06/12 08:48:53;;;;;;;5.00;4.70;;;;;;;26.93;45.02;98457.47;4153464;28;20215;-50
2023/06/12 08:50:54;;;;;;;5.40;4.28;;;;;;;26.61;46.93;98450.09;4156383;28;20213;-50
2023/06/12 08:52:57;;;;;;;5.00;4.57;;;;;;;26.67;46.33;98449.47;4155860;28;20231;-50
2023/06/12 08:55:00;;;;;;;4.53;3.40;;;;;;;27.12;46.98;98452.00;4132061;28;20229;-52
2023/06/12 08:57:03;;;;;;;5.13;4.72;;;;;;;27.01;46.01;98448.88;4151272;28;20247;-51
2023/06/12 08:59:05;;;;;;;4.82;4.38;;;;;;;27.05;45.41;98455.41;4140360;28;20212;-51
2023/06/12 09:01:08;;;;;;;6.90;4.18;;;;;;;26.69;45.86;98447.16;4181457;28;20203;-50
2023/06/12 09:03:10;;;;;;;4.07;3.70;;;;;;;27.39;44.74;98451.16;4155634;28;20569;-52
2023/06/12 09:05:37;;;;;;;4.57;4.28;;;;;;;26.54;44.94;98450.72;4156588;28;20220;-51
2023/06/12 09:07:40;;;;;;;9.52;4.10;;;;;;;26.57;45.66;98444.38;4166044;28;20200;-50
2023/06/12 09:09:42;;;;;;;5.13;4.63;;;;;;;26.42;45.43;98442.28;4155338;28;20212;-50
2023/06/12 09:11:44;;;;;;;5.40;4.95;;;;;;;26.82;45.33;98448.75;4157480;28;20239;-50
2023/06/12 09:13:50;;;;;;;4.70;4.18;;;;;;;26.60;45.61;98438.03;4158822;28;20232;-50
2023/06/12 09:15:55;;;;;;;4.65;4.25;;;;;;;25.70;46.54;98442.34;4157915;28;20668;-50
2023/06/12 09:17:57;;;;;;;4.90;4.50;;;;;;;26.37;46.29;98438.91;4146909;28;20296;-49
2023/06/12 09:20:00;;;;;;;6.13;5.60;;;;;;;26.53;46.10;98437.81;4150490;28;20208;-51
2023/06/12 09:22:02;;;;;;;5.22;4.80;;;;;;;27.14;45.45;98436.41;4153569;28;20573;-50
2023/06/12 09:24:04;;;;;;;4.72;4.32;;;;;;;27.63;45.60;98443.38;4153975;28;20275;-50
2023/06/12 09:26:16;;;;;;;5.25;4.32;;;;;;;27.08;45.20;98443.47;4153076;28;20218;-50
2023/06/12 09:28:23;;;;;;;4.97;4.35;;;;;;;27.12;44.99;98433.13;4160060;28;20216;-50
2023/06/12 09:30:24;;;;;;;5.10;3.95;;;;;;;27.44;44.04;98434.84;4156431;28;20259;-49
2023/06/12 09:32:28;;;;;;;7.95;5.88;;;;;;;27.05;44.95;98435.75;4166526;28;20212;-50
2023/06/12 09:34:34;;;;;;;4.20;3.85;;;;;;;27.44;44.31;98423.59;4167852;28;20764;-50
2023/06/12 09:36:36;;;;;;;4.50;4.10;;;;;;;27.40;43.50;98438.72;4164579;28;20294;-49
2023/06/12 09:38:38;;;;;;;4.93;4.53;;;;;;;27.89;44.07;98446.47;4179166;28;20207;-53